Jinan — 5IM_757 — position and weather

sailwx.info

Track history (hours):
 
Tides and Currents Weather Stations Pressure Air Temp Water Temp Dewpoint Dewpoint Depression Visibility Wind Speed Wind Dir Waves Ship Positions

Jinan

Last reported at 2018-Jul-16 04:12 UTC. Time now 2018-Jul-20 04:23 UTC.
Position N 39°52' E 025°51'.

Length 97 m; draft 7.6 m.

Type: Cargo ship. MMSI: 677095700.

Date/timePositionNaut miles runAvg speedWind from/ knotsBaromVisibWave heightAir tempDewpointWater temp
2018-Jul-16 04:12N 39°52' E 025°51'247 7.3
2018-Jul-14 18:27N 42°44' E 029°47'410.0
2018-Jul-14 18:00N 42°48' E 029°49'510.0
2018-Jul-14 17:29N 42°53' E 029°51'510.0
2018-Jul-14 17:00N 42°58' E 029°53'610.1
2018-Jul-14 16:26N 43°03' E 029°56'410.2
2018-Jul-14 16:00N 43°07' E 029°58'1010.1
2018-Jul-14 14:58N 43°17' E 030°02'1610.2
2018-Jul-14 13:25N 43°32' E 030°09'710.5
2018-Jul-14 12:47N 43°39' E 030°12'310.6
2018-Jul-14 12:30N 43°41' E 030°13'3410.9
2018-Jul-14 09:23N 44°14' E 030°28'25 3.2
2018-Jul-14 01:29N 44°38' E 030°39'0 0.4
2018-Jul-14 00:56N 44°38' E 030°39'1 0.5
2018-Jul-13 23:50N 44°38' E 030°40'1 4.5
2018-Jul-13 23:30N 44°40' E 030°41'510.1
2018-Jul-13 23:00N 44°44' E 030°43'510.5
2018-Jul-13 22:30N 44°49' E 030°46'510.6
2018-Jul-13 22:00N 44°55' E 030°48'510.6
2018-Jul-13 21:30N 44°60' E 030°50'510.7
2018-Jul-13 21:00N 45°05' E 030°53'510.7
2018-Jul-13 20:30N 45°10' E 030°55'510.7
2018-Jul-13 20:00N 45°15' E 030°57'5510.3
2018-Jul-13 14:41N 46°09' E 031°01'810.2
2018-Jul-13 13:54N 46°16' E 030°54'410.0
2018-Jul-13 13:30N 46°20' E 030°55'510.1
2018-Jul-13 13:00N 46°25' E 030°55'510.0
2018-Jul-13 12:30N 46°30' E 030°55'4 8.7
2018-Jul-13 12:00N 46°33' E 030°59'4 7.9
2018-Jul-13 11:30N 46°35' E 031°05'5 9.2
2018-Jul-13 10:59N 46°35' E 031°11'5 9.6
2018-Jul-13 10:30N 46°35' E 031°18'17 9.2
2018-Jul-13 08:37N 46°36' E 031°43'2 9.1
2018-Jul-13 08:25N 46°36' E 031°46'4 8.2
2018-Jul-13 07:53N 46°35' E 031°52'3 8.1
2018-Jul-13 07:29N 46°34' E 031°57'4 8.4
2018-Jul-13 07:00N 46°32' E 032°02'11 8.4
2018-Jul-13 05:43N 46°33' E 032°18'9 6.2
2018-Jul-13 04:14N 46°36' E 032°31'2 6.9
2018-Jul-13 03:57N 46°36' E 032°34'  
2018-Jul-08 05:00N 46°33' E 032°21'510.3
2018-Jul-08 04:30N 46°33' E 032°14'611.5
2018-Jul-08 04:00N 46°32' E 032°06'611.4
2018-Jul-08 03:30N 46°33' E 031°58'611.9
2018-Jul-08 03:00N 46°35' E 031°50'5 9.6
2018-Jul-08 02:30N 46°36' E 031°43'611.7
2018-Jul-08 02:00N 46°35' E 031°34'510.5
2018-Jul-08 01:29N 46°35' E 031°26'611.9
2018-Jul-08 01:00N 46°35' E 031°18'612.5
2018-Jul-08 00:30N 46°35' E 031°09'611.5
2018-Jul-08 00:00N 46°33' E 031°01'3 6.5
2018-Jul-07 23:30N 46°32' E 030°57'4 7.7
2018-Jul-07 23:00N 46°28' E 030°57'4 7.9
2018-Jul-07 22:29N 46°24' E 030°57'4 7.5
2018-Jul-07 21:59N 46°20' E 030°57'14 7.4
2018-Jul-07 20:08N 46°09' E 031°08'211.2
2018-Jul-07 19:59N 46°07' E 031°08'612.2
2018-Jul-07 19:30N 46°01' E 031°10'612.1
2018-Jul-07 19:00N 45°56' E 031°12'612.1
2018-Jul-07 18:30N 45°50' E 031°14'612.0
2018-Jul-07 18:00N 45°44' E 031°15'612.2
2018-Jul-07 17:30N 45°38' E 031°17'612.1
2018-Jul-07 17:00N 45°32' E 031°18'612.3
2018-Jul-07 16:30N 45°26' E 031°20'612.1
2018-Jul-07 16:00N 45°20' E 031°22'612.0
2018-Jul-07 15:30N 45°14' E 031°24'612.0
2018-Jul-07 15:00N 45°08' E 031°26'612.0
2018-Jul-07 14:30N 45°02' E 031°27'611.9
2018-Jul-07 14:00N 44°57' E 031°29'611.7
2018-Jul-07 13:30N 44°51' E 031°32'611.4
2018-Jul-07 13:00N 44°47' E 031°37'711.6
2018-Jul-07 12:23N 44°42' E 031°45'411.8
2018-Jul-07 12:00N 44°39' E 031°50'612.1
2018-Jul-07 11:30N 44°35' E 031°56'612.6
2018-Jul-07 11:00N 44°31' E 032°03'812.7
2018-Jul-07 10:20N 44°25' E 032°11'1012.9
2018-Jul-07 09:36N 44°18' E 032°20'712.7
2018-Jul-07 09:02N 44°13' E 032°28'912.6
2018-Jul-07 08:19N 44°07' E 032°36'412.6
2018-Jul-07 08:00N 44°04' E 032°40'712.5
2018-Jul-07 07:27N 43°59' E 032°47'612.6
2018-Jul-07 07:00N 43°55' E 032°53'612.4
2018-Jul-07 06:30N 43°51' E 032°59'612.2
2018-Jul-07 06:00N 43°46' E 033°05'812.1
2018-Jul-07 05:20N 43°40' E 033°12'412.1
2018-Jul-07 05:00N 43°37' E 033°16'1012.0
2018-Jul-07 04:10N 43°30' E 033°24'1 8.4
2018-Jul-07 04:00N 43°29' E 033°26'  
Track history (hours):
 
Tides and Currents Weather Stations Pressure Air Temp Water Temp Dewpoint Dewpoint Depression Visibility Wind Speed Wind Dir Waves Ship Positions

Jinan

Last reported at 2018-Jul-16 04:12 UTC. Time now 2018-Jul-20 04:23 UTC.
Position N 39°52' E 025°51'.

Length 97 m; draft 7.6 m.

Type: Cargo ship. MMSI: 677095700.

Date/timePositionNaut miles runAvg speedWind from/ knotsBaromVisibWave heightAir tempDewpointWater temp
2018-Jul-16 04:12N 39°52' E 025°51'247 7.3
2018-Jul-14 18:27N 42°44' E 029°47'410.0
2018-Jul-14 18:00N 42°48' E 029°49'510.0
2018-Jul-14 17:29N 42°53' E 029°51'510.0
2018-Jul-14 17:00N 42°58' E 029°53'610.1
2018-Jul-14 16:26N 43°03' E 029°56'410.2
2018-Jul-14 16:00N 43°07' E 029°58'1010.1
2018-Jul-14 14:58N 43°17' E 030°02'1610.2
2018-Jul-14 13:25N 43°32' E 030°09'710.5
2018-Jul-14 12:47N 43°39' E 030°12'310.6
2018-Jul-14 12:30N 43°41' E 030°13'3410.9
2018-Jul-14 09:23N 44°14' E 030°28'25 3.2
2018-Jul-14 01:29N 44°38' E 030°39'0 0.4
2018-Jul-14 00:56N 44°38' E 030°39'1 0.5
2018-Jul-13 23:50N 44°38' E 030°40'1 4.5
2018-Jul-13 23:30N 44°40' E 030°41'510.1
2018-Jul-13 23:00N 44°44' E 030°43'510.5
2018-Jul-13 22:30N 44°49' E 030°46'510.6
2018-Jul-13 22:00N 44°55' E 030°48'510.6
2018-Jul-13 21:30N 44°60' E 030°50'510.7
2018-Jul-13 21:00N 45°05' E 030°53'510.7
2018-Jul-13 20:30N 45°10' E 030°55'510.7
2018-Jul-13 20:00N 45°15' E 030°57'5510.3
2018-Jul-13 14:41N 46°09' E 031°01'810.2
2018-Jul-13 13:54N 46°16' E 030°54'410.0
2018-Jul-13 13:30N 46°20' E 030°55'510.1
2018-Jul-13 13:00N 46°25' E 030°55'510.0
2018-Jul-13 12:30N 46°30' E 030°55'4 8.7
2018-Jul-13 12:00N 46°33' E 030°59'4 7.9
2018-Jul-13 11:30N 46°35' E 031°05'5 9.2
2018-Jul-13 10:59N 46°35' E 031°11'5 9.6
2018-Jul-13 10:30N 46°35' E 031°18'17 9.2
2018-Jul-13 08:37N 46°36' E 031°43'2 9.1
2018-Jul-13 08:25N 46°36' E 031°46'4 8.2
2018-Jul-13 07:53N 46°35' E 031°52'3 8.1
2018-Jul-13 07:29N 46°34' E 031°57'4 8.4
2018-Jul-13 07:00N 46°32' E 032°02'11 8.4
2018-Jul-13 05:43N 46°33' E 032°18'9 6.2
2018-Jul-13 04:14N 46°36' E 032°31'2 6.9
2018-Jul-13 03:57N 46°36' E 032°34'  
2018-Jul-08 05:00N 46°33' E 032°21'510.3
2018-Jul-08 04:30N 46°33' E 032°14'611.5
2018-Jul-08 04:00N 46°32' E 032°06'611.4
2018-Jul-08 03:30N 46°33' E 031°58'611.9
2018-Jul-08 03:00N 46°35' E 031°50'5 9.6
2018-Jul-08 02:30N 46°36' E 031°43'611.7
2018-Jul-08 02:00N 46°35' E 031°34'510.5
2018-Jul-08 01:29N 46°35' E 031°26'611.9
2018-Jul-08 01:00N 46°35' E 031°18'612.5
2018-Jul-08 00:30N 46°35' E 031°09'611.5
2018-Jul-08 00:00N 46°33' E 031°01'3 6.5
2018-Jul-07 23:30N 46°32' E 030°57'4 7.7
2018-Jul-07 23:00N 46°28' E 030°57'4 7.9
2018-Jul-07 22:29N 46°24' E 030°57'4 7.5
2018-Jul-07 21:59N 46°20' E 030°57'14 7.4
2018-Jul-07 20:08N 46°09' E 031°08'211.2
2018-Jul-07 19:59N 46°07' E 031°08'612.2
2018-Jul-07 19:30N 46°01' E 031°10'612.1
2018-Jul-07 19:00N 45°56' E 031°12'612.1
2018-Jul-07 18:30N 45°50' E 031°14'612.0
2018-Jul-07 18:00N 45°44' E 031°15'612.2
2018-Jul-07 17:30N 45°38' E 031°17'612.1
2018-Jul-07 17:00N 45°32' E 031°18'612.3
2018-Jul-07 16:30N 45°26' E 031°20'612.1
2018-Jul-07 16:00N 45°20' E 031°22'612.0
2018-Jul-07 15:30N 45°14' E 031°24'612.0
2018-Jul-07 15:00N 45°08' E 031°26'612.0
2018-Jul-07 14:30N 45°02' E 031°27'611.9
2018-Jul-07 14:00N 44°57' E 031°29'611.7
2018-Jul-07 13:30N 44°51' E 031°32'611.4
2018-Jul-07 13:00N 44°47' E 031°37'711.6
2018-Jul-07 12:23N 44°42' E 031°45'411.8
2018-Jul-07 12:00N 44°39' E 031°50'612.1
2018-Jul-07 11:30N 44°35' E 031°56'612.6
2018-Jul-07 11:00N 44°31' E 032°03'812.7
2018-Jul-07 10:20N 44°25' E 032°11'1012.9
2018-Jul-07 09:36N 44°18' E 032°20'712.7
2018-Jul-07 09:02N 44°13' E 032°28'912.6
2018-Jul-07 08:19N 44°07' E 032°36'412.6
2018-Jul-07 08:00N 44°04' E 032°40'712.5
2018-Jul-07 07:27N 43°59' E 032°47'612.6
2018-Jul-07 07:00N 43°55' E 032°53'612.4
2018-Jul-07 06:30N 43°51' E 032°59'612.2
2018-Jul-07 06:00N 43°46' E 033°05'812.1
2018-Jul-07 05:20N 43°40' E 033°12'412.1
2018-Jul-07 05:00N 43°37' E 033°16'1012.0
2018-Jul-07 04:10N 43°30' E 033°24'1 8.4
2018-Jul-07 04:00N 43°29' E 033°26'  

Dump ship's entire track history